Time;durP1;ratioP1;P1;durP2;ratioP2;P2;SDS_P1;SDS_P2;PMS_P1;PMS_P2;Temp;Humidity;BMP_temperature;BMP_pressure;BME280_temperature;BME280_humidity;BME280_pressure;Samples;Min_cycle;Max_cycle;Signal;HPM_P1;HPM_P2
2023/03/30 00:00:19;;;;;;;9.20;2.67;;;;;;;12.37;100.00;96573.72;5054047;28;20207;-57
2023/03/30 00:02:48;;;;;;;8.83;3.13;;;;;;;12.31;100.00;96582.28;5054848;28;20204;-57
2023/03/30 00:05:15;;;;;;;8.47;3.27;;;;;;;12.33;100.00;96585.59;5055227;28;20319;-57
2023/03/30 00:07:42;;;;;;;4.87;2.77;;;;;;;12.29;100.00;96572.84;5054636;28;20284;-56
2023/03/30 00:10:13;;;;;;;7.63;2.70;;;;;;;12.25;100.00;96579.44;5053851;28;20199;-57
2023/03/30 00:12:42;;;;;;;9.57;2.80;;;;;;;12.25;100.00;96567.00;5054381;28;20213;-56
2023/03/30 00:15:11;;;;;;;6.00;2.50;;;;;;;12.20;100.00;96561.34;5054407;28;20574;-57
2023/03/30 00:17:38;;;;;;;5.47;2.60;;;;;;;12.14;100.00;96558.47;5053930;28;20252;-57
2023/03/30 00:20:08;;;;;;;6.73;2.63;;;;;;;12.09;100.00;96560.75;5053813;28;20207;-57
2023/03/30 00:22:35;;;;;;;7.03;2.37;;;;;;;12.10;100.00;96555.28;5052030;28;20199;-57
2023/03/30 00:25:02;;;;;;;8.43;2.73;;;;;;;12.07;100.00;96550.31;5054078;28;20211;-57
2023/03/30 00:27:30;;;;;;;6.73;2.87;;;;;;;12.02;100.00;96539.31;5053883;28;20230;-58
2023/03/30 00:29:59;;;;;;;6.63;3.00;;;;;;;12.00;100.00;96540.47;5053106;28;20288;-57
2023/03/30 00:32:26;;;;;;;6.10;2.60;;;;;;;12.01;100.00;96536.84;5053555;28;20211;-57
2023/03/30 00:34:52;;;;;;;5.33;2.60;;;;;;;12.01;100.00;96542.94;5053484;28;20203;-57
2023/03/30 00:37:19;;;;;;;8.13;3.20;;;;;;;12.05;100.00;96543.47;5054381;28;20203;-57
2023/03/30 00:39:46;;;;;;;6.10;2.50;;;;;;;12.03;100.00;96546.28;5054664;28;20277;-58
2023/03/30 00:42:15;;;;;;;6.70;2.70;;;;;;;12.01;100.00;96552.75;5055193;28;20221;-56
2023/03/30 00:45:22;;;;;;;8.70;2.50;;;;;;;12.04;100.00;96555.09;5053480;28;20239;-56
2023/03/30 00:47:57;;;;;;;11.60;3.10;;;;;;;11.97;100.00;96537.13;5052898;28;20573;-57
2023/03/30 00:50:28;;;;;;;8.73;2.63;;;;;;;12.02;100.00;96538.50;5052540;28;20573;-58
2023/03/30 00:52:57;;;;;;;7.43;2.13;;;;;;;12.04;100.00;96537.38;5057541;28;20191;-57
2023/03/30 00:55:25;;;;;;;7.63;2.83;;;;;;;12.07;100.00;96528.28;5058230;28;20871;-57
2023/03/30 00:57:52;;;;;;;9.20;2.90;;;;;;;12.08;100.00;96530.75;5057522;28;20194;-58
2023/03/30 01:00:19;;;;;;;8.37;2.60;;;;;;;12.12;100.00;96524.16;5052645;28;20694;-57
2023/03/30 01:02:51;;;;;;;8.97;2.53;;;;;;;12.26;100.00;96522.75;5053857;28;20235;-58
2023/03/30 01:05:19;;;;;;;6.70;2.87;;;;;;;12.46;98.57;96511.78;5053606;28;20210;-57
2023/03/30 01:07:48;;;;;;;10.30;3.27;;;;;;;12.62;97.21;96515.50;5053217;28;20273;-57
2023/03/30 01:10:15;;;;;;;15.40;3.63;;;;;;;12.82;94.92;96511.63;5053032;28;20222;-57
2023/03/30 01:12:41;;;;;;;9.77;3.03;;;;;;;12.97;92.76;96510.00;5053350;28;20211;-57
2023/03/30 01:15:09;;;;;;;9.23;2.60;;;;;;;13.19;90.62;96513.91;5053564;28;20207;-57
2023/03/30 01:17:46;;;;;;;12.47;3.43;;;;;;;13.38;89.45;96508.31;5052924;28;20206;-57
2023/03/30 01:20:45;;;;;;;14.07;3.23;;;;;;;13.64;87.06;96513.50;5051912;28;20202;-56
2023/03/30 01:23:45;;;;;;;11.03;2.83;;;;;;;13.82;86.00;96516.81;5051871;28;20199;-57
2023/03/30 01:26:29;;;;;;;12.27;3.53;;;;;;;14.03;83.26;96509.16;5052233;28;20795;-56
2023/03/30 01:28:59;;;;;;;18.97;3.37;;;;;;;14.17;83.26;96513.81;5052624;28;20223;-57
2023/03/30 01:31:36;;;;;;;13.23;3.10;;;;;;;14.30;81.62;96508.81;5051522;28;21341;-57
2023/03/30 01:34:35;;;;;;;7.30;2.43;;;;;;;14.32;83.33;96504.13;5050705;28;20209;-56
2023/03/30 01:37:18;;;;;;;11.03;3.00;;;;;;;14.38;83.02;96510.66;5050784;28;20218;-58
2023/03/30 01:39:57;;;;;;;6.67;2.83;;;;;;;14.36;84.28;96521.47;5052081;28;20195;-57
2023/03/30 01:42:31;;;;;;;10.70;3.10;;;;;;;14.36;85.21;96533.94;5052746;28;20210;-57
2023/03/30 01:45:02;;;;;;;15.50;3.33;;;;;;;14.34;87.82;96543.91;5052427;28;20209;-57
2023/03/30 01:47:36;;;;;;;14.93;3.10;;;;;;;14.26;94.72;96546.53;5052125;28;20306;-57
2023/03/30 01:50:06;;;;;;;13.80;3.10;;;;;;;14.18;96.39;96534.09;5051207;28;20243;-57
2023/03/30 01:52:37;;;;;;;8.63;3.13;;;;;;;14.18;93.49;96530.59;5052153;28;20191;-58
2023/03/30 01:55:12;;;;;;;10.23;3.00;;;;;;;14.06;98.94;96486.75;5051972;28;20203;-58
2023/03/30 01:57:43;;;;;;;11.90;3.13;;;;;;;13.95;100.00;96485.25;5051386;28;20599;-57
2023/03/30 02:00:13;;;;;;;10.77;3.73;;;;;;;13.89;100.00;96486.75;5051985;28;20195;-57
2023/03/30 02:02:41;;;;;;;9.60;2.93;;;;;;;13.77;100.00;96481.94;5051292;28;20211;-57
2023/03/30 02:05:10;;;;;;;11.63;3.97;;;;;;;13.61;100.00;96472.13;5051446;28;20199;-57
2023/03/30 02:07:38;;;;;;;14.30;3.07;;;;;;;13.45;100.00;96472.97;5051710;28;20284;-58
2023/03/30 02:10:08;;;;;;;7.97;3.10;;;;;;;13.32;100.00;96455.88;5052008;28;20207;-58
2023/03/30 02:12:37;;;;;;;12.67;3.10;;;;;;;13.13;100.00;96466.78;5051352;28;20543;-57
2023/03/30 02:15:06;;;;;;;8.60;3.17;;;;;;;13.01;100.00;96455.59;5051865;28;20203;-57
2023/03/30 02:17:34;;;;;;;10.40;3.57;;;;;;;12.95;100.00;96459.75;5051427;28;20298;-57
2023/03/30 02:20:03;;;;;;;5.37;2.50;;;;;;;12.89;100.00;96455.06;5051566;28;20213;-56
2023/03/30 02:22:29;;;;;;;9.40;2.83;;;;;;;12.77;100.00;96455.53;5051014;28;20211;-57
2023/03/30 02:24:57;;;;;;;9.00;2.83;;;;;;;12.65;100.00;96443.53;5051549;28;20207;-57
2023/03/30 02:27:25;;;;;;;8.37;2.93;;;;;;;12.61;100.00;96439.56;5051209;28;20223;-57
2023/03/30 02:29:55;;;;;;;10.30;3.43;;;;;;;12.51;100.00;96439.69;5050725;28;20623;-57
2023/03/30 02:32:23;;;;;;;6.60;2.90;;;;;;;12.46;100.00;96429.56;5051667;28;20211;-57
2023/03/30 02:35:08;;;;;;;9.50;3.27;;;;;;;12.40;100.00;96426.69;5050398;28;20206;-57
2023/03/30 02:37:54;;;;;;;11.83;3.33;;;;;;;12.37;100.00;96429.69;5051278;28;20199;-57
2023/03/30 02:40:29;;;;;;;7.80;2.63;;;;;;;12.34;100.00;96414.94;5051304;28;20218;-57
2023/03/30 02:43:08;;;;;;;11.10;3.07;;;;;;;12.31;100.00;96406.47;5050699;28;20194;-58
2023/03/30 02:45:41;;;;;;;12.63;3.03;;;;;;;12.29;100.00;96413.75;5050915;28;20199;-57
2023/03/30 02:48:27;;;;;;;9.73;2.80;;;;;;;12.29;100.00;96419.06;5051127;28;20203;-58
2023/03/30 02:50:57;;;;;;;11.37;3.17;;;;;;;12.27;100.00;96411.25;5050435;28;20203;-57
2023/03/30 02:53:30;;;;;;;12.40;2.97;;;;;;;12.21;100.00;96406.59;5050459;28;20222;-57
2023/03/30 02:56:02;;;;;;;8.63;3.43;;;;;;;12.18;100.00;96398.97;5050832;28;20332;-58
2023/03/30 02:58:36;;;;;;;8.57;3.03;;;;;;;12.10;100.00;96393.59;5050655;28;20697;-57
2023/03/30 03:01:04;;;;;;;10.53;3.10;;;;;;;12.11;100.00;96394.44;5050848;28;20203;-57
2023/03/30 03:03:34;;;;;;;15.23;3.67;;;;;;;12.12;100.00;96375.72;5050216;28;20203;-56
2023/03/30 03:06:01;;;;;;;11.50;3.10;;;;;;;12.14;100.00;96372.91;5051276;28;20199;-58
2023/03/30 03:08:30;;;;;;;10.53;2.90;;;;;;;12.12;100.00;96380.19;5050765;28;20231;-57
2023/03/30 03:10:56;;;;;;;9.77;3.40;;;;;;;12.10;100.00;96375.06;5050996;28;20203;-58
2023/03/30 03:13:23;;;;;;;12.83;3.17;;;;;;;12.09;100.00;96359.28;5050121;28;20203;-57
2023/03/30 03:15:54;;;;;;;14.00;3.67;;;;;;;12.06;100.00;96356.97;5049746;28;20532;-56
2023/03/30 03:18:21;;;;;;;8.90;3.50;;;;;;;12.06;100.00;96333.94;5049620;28;20595;-57
2023/03/30 03:20:48;;;;;;;13.70;3.70;;;;;;;12.03;100.00;96328.13;5050855;28;20212;-58
2023/03/30 03:23:14;;;;;;;11.67;3.57;;;;;;;12.03;100.00;96322.84;5051773;28;20281;-57
2023/03/30 03:25:45;;;;;;;13.10;3.73;;;;;;;12.02;100.00;96318.53;5059408;28;20214;-56
2023/03/30 03:28:11;;;;;;;9.50;3.20;;;;;;;11.89;100.00;96305.72;5055926;28;20310;-57
2023/03/30 03:30:38;;;;;;;9.13;2.63;;;;;;;11.91;100.00;96301.91;5054461;28;20206;-58
2023/03/30 03:33:06;;;;;;;7.83;2.77;;;;;;;11.98;100.00;96297.66;5053755;28;20203;-57
2023/03/30 03:35:32;;;;;;;8.77;2.77;;;;;;;12.24;100.00;96294.09;5053829;28;20276;-56
2023/03/30 03:37:59;;;;;;;9.83;2.70;;;;;;;12.36;100.00;96301.56;5054239;28;20216;-57
2023/03/30 03:40:25;;;;;;;6.70;2.43;;;;;;;12.44;100.00;96292.78;5054879;28;20207;-57
2023/03/30 03:42:53;;;;;;;15.40;2.40;;;;;;;12.77;97.51;96289.19;5054289;28;20203;-57
2023/03/30 03:45:20;;;;;;;5.53;2.50;;;;;;;13.09;94.92;96283.09;5054807;28;20210;-57
2023/03/30 03:47:46;;;;;;;7.33;2.53;;;;;;;13.30;91.04;96277.25;5053593;28;20730;-57
2023/03/30 03:50:15;;;;;;;8.77;2.53;;;;;;;13.57;88.56;96274.19;5054083;28;20231;-58
2023/03/30 03:52:42;;;;;;;7.77;2.50;;;;;;;13.78;85.76;96274.47;5053698;28;20199;-58
2023/03/30 03:55:09;;;;;;;7.13;2.60;;;;;;;14.04;83.32;96266.22;5054675;28;20245;-58
2023/03/30 03:57:35;;;;;;;6.67;2.57;;;;;;;14.26;81.32;96267.28;5053896;28;20638;-57
2023/03/30 04:00:02;;;;;;;5.90;1.70;;;;;;;14.38;79.65;96264.06;5053315;28;20198;-56
2023/03/30 04:02:29;;;;;;;7.47;2.27;;;;;;;14.54;78.39;96270.28;5054111;28;20211;-56
2023/03/30 04:04:56;;;;;;;12.77;2.43;;;;;;;14.61;77.88;96266.75;5053913;28;20210;-57
2023/03/30 04:07:24;;;;;;;8.37;2.73;;;;;;;14.62;77.33;96268.41;5054173;28;20284;-57
2023/03/30 04:09:51;;;;;;;6.93;2.20;;;;;;;14.66;77.71;96256.41;5053119;28;20269;-57
2023/03/30 04:12:19;;;;;;;8.07;2.77;;;;;;;14.74;76.76;96255.50;5053997;28;20294;-58
2023/03/30 04:14:46;;;;;;;5.55;2.60;;;;;;;14.76;76.50;96259.66;5053866;28;20207;-57
2023/03/30 04:17:13;;;;;;;7.70;2.63;;;;;;;14.71;77.28;96264.69;5054409;28;20602;-56
2023/03/30 04:19:40;;;;;;;5.53;2.57;;;;;;;14.75;75.61;96273.97;5053447;28;20300;-57
2023/03/30 04:22:07;;;;;;;10.00;2.87;;;;;;;14.39;87.15;96289.66;5053703;28;20230;-56
2023/03/30 04:24:35;;;;;;;11.23;2.93;;;;;;;14.06;91.79;96301.47;5054105;28;20301;-57
2023/03/30 04:27:02;;;;;;;12.47;3.20;;;;;;;13.82;96.50;96299.69;5053338;28;20203;-58
2023/03/30 04:29:29;;;;;;;14.47;3.77;;;;;;;13.54;100.00;96300.28;5053651;28;20219;-57
2023/03/30 04:32:01;;;;;;;9.10;3.20;;;;;;;13.37;100.00;96284.38;5052355;28;20218;-57
2023/03/30 04:34:29;;;;;;;11.37;3.50;;;;;;;13.19;100.00;96269.63;5052858;28;20207;-58
2023/03/30 04:36:56;;;;;;;10.13;3.60;;;;;;;13.05;100.00;96268.47;5053618;28;20293;-58
2023/03/30 04:39:23;;;;;;;10.80;3.07;;;;;;;12.91;100.00;96264.66;5052744;28;20207;-57
2023/03/30 04:41:53;;;;;;;9.50;3.40;;;;;;;12.81;100.00;96248.09;5074995;28;20207;-57
2023/03/30 04:44:20;;;;;;;8.53;3.47;;;;;;;12.75;100.00;96248.72;5073888;28;20195;-57
2023/03/30 04:46:47;;;;;;;7.70;3.30;;;;;;;12.65;100.00;96255.19;5075622;28;20375;-58
2023/03/30 04:49:13;;;;;;;10.23;3.70;;;;;;;12.62;100.00;96261.66;5074651;28;20245;-57
2023/03/30 04:51:41;;;;;;;9.47;3.73;;;;;;;12.58;100.00;96256.84;5070127;28;20222;-57
2023/03/30 04:54:08;;;;;;;11.90;3.37;;;;;;;12.41;100.00;96259.50;5054988;28;20644;-57
2023/03/30 04:56:34;;;;;;;10.13;3.80;;;;;;;12.41;100.00;96259.50;5064068;28;20268;-57
2023/03/30 04:59:02;;;;;;;9.53;3.37;;;;;;;12.38;100.00;96264.28;5053518;28;20262;-58
2023/03/30 05:01:30;;;;;;;10.77;3.27;;;;;;;12.33;100.00;96266.59;5053409;28;20204;-58
2023/03/30 05:03:57;;;;;;;8.60;3.10;;;;;;;12.30;100.00;96281.00;5053076;28;20222;-58
2023/03/30 05:06:26;;;;;;;10.97;3.50;;;;;;;12.29;100.00;96289.16;5054949;28;20257;-57
2023/03/30 05:08:52;;;;;;;13.17;4.00;;;;;;;12.29;100.00;96286.50;5053710;28;20556;-57
2023/03/30 05:11:19;;;;;;;8.80;3.00;;;;;;;12.30;100.00;96280.16;5052544;28;20229;-57
2023/03/30 05:13:46;;;;;;;8.90;3.13;;;;;;;12.23;100.00;96271.22;5051058;28;20210;-57
2023/03/30 05:16:13;;;;;;;11.40;3.47;;;;;;;12.24;100.00;96272.88;5052953;28;20733;-56
2023/03/30 05:18:42;;;;;;;7.00;2.83;;;;;;;12.27;100.00;96267.25;5053531;28;20203;-57
2023/03/30 05:21:08;;;;;;;8.17;3.00;;;;;;;12.19;100.00;96260.09;5052104;28;20254;-57
2023/03/30 05:23:38;;;;;;;7.50;2.73;;;;;;;12.23;100.00;96284.47;5054172;28;20201;-57
2023/03/30 05:26:05;;;;;;;11.27;2.87;;;;;;;12.17;100.00;96274.50;5054175;28;20199;-57
2023/03/30 05:28:32;;;;;;;6.87;2.77;;;;;;;12.25;100.00;96258.63;5053182;28;20342;-57
2023/03/30 05:30:59;;;;;;;7.80;2.70;;;;;;;12.32;100.00;96249.88;5052477;28;20576;-57
2023/03/30 05:33:27;;;;;;;10.23;3.50;;;;;;;12.45;100.00;96260.00;5052321;28;20301;-57
2023/03/30 05:35:53;;;;;;;7.00;2.57;;;;;;;12.56;100.00;96275.59;5052832;28;20195;-60
2023/03/30 05:38:20;;;;;;;5.77;2.73;;;;;;;12.63;100.00;96273.94;5050114;28;20206;-56
2023/03/30 05:40:48;;;;;;;5.47;2.47;;;;;;;12.70;100.00;96261.69;5052518;28;20211;-57
2023/03/30 05:43:15;;;;;;;8.27;3.00;;;;;;;12.70;100.00;96258.19;5051560;28;20222;-57
2023/03/30 05:45:42;;;;;;;7.73;3.77;;;;;;;12.81;100.00;96260.50;5052259;28;20218;-57
2023/03/30 05:48:09;;;;;;;9.43;3.53;;;;;;;12.77;100.00;96265.31;5051169;28;20229;-56
2023/03/30 05:50:37;;;;;;;10.90;3.40;;;;;;;12.77;100.00;96265.31;5061501;28;20235;-57
2023/03/30 05:53:04;;;;;;;10.80;3.03;;;;;;;12.76;100.00;96263.66;5067013;28;20203;-56
2023/03/30 05:55:30;;;;;;;8.10;3.00;;;;;;;12.77;100.00;96254.72;5061623;28;20276;-58
2023/03/30 05:57:57;;;;;;;8.60;3.07;;;;;;;12.75;100.00;96255.88;5052679;28;20211;-56
2023/03/30 06:00:24;;;;;;;9.07;3.20;;;;;;;12.71;100.00;96255.38;5051603;28;20211;-56
2023/03/30 06:02:52;;;;;;;9.20;3.60;;;;;;;12.69;100.00;96252.06;5051558;28;20213;-56
2023/03/30 06:05:20;;;;;;;11.67;3.13;;;;;;;12.68;100.00;96254.88;5051648;28;20297;-57
2023/03/30 06:07:48;;;;;;;13.47;3.57;;;;;;;12.68;100.00;96266.28;5051773;28;20242;-56
2023/03/30 06:10:15;;;;;;;12.00;3.40;;;;;;;12.61;100.00;96260.00;5051857;28;20231;-56
2023/03/30 06:12:45;;;;;;;10.53;3.73;;;;;;;12.58;100.00;96249.72;5051585;28;20591;-56
2023/03/30 06:15:11;;;;;;;7.83;2.90;;;;;;;12.58;100.00;96244.41;5051547;28;20207;-56
2023/03/30 06:17:38;;;;;;;10.60;3.80;;;;;;;12.58;100.00;96240.94;5051608;28;20211;-57
2023/03/30 06:20:10;;;;;;;8.33;3.17;;;;;;;12.56;100.00;96240.28;5050945;28;20235;-56
2023/03/30 06:22:36;;;;;;;13.50;3.83;;;;;;;12.54;100.00;96232.47;5052164;28;20536;-56
2023/03/30 06:25:05;;;;;;;9.60;3.27;;;;;;;12.53;100.00;96235.31;5051291;28;20520;-56
2023/03/30 06:27:32;;;;;;;10.23;3.60;;;;;;;12.59;100.00;96229.34;5051280;28;20599;-56
2023/03/30 06:29:59;;;;;;;12.50;3.57;;;;;;;12.58;100.00;96212.59;5051872;28;20292;-56
2023/03/30 06:32:28;;;;;;;10.97;3.70;;;;;;;12.64;100.00;96222.56;5051494;28;20207;-56
2023/03/30 06:34:54;;;;;;;9.83;3.90;;;;;;;12.67;100.00;96216.06;5051052;28;20203;-57
2023/03/30 06:37:21;;;;;;;11.53;3.97;;;;;;;12.71;100.00;96228.03;5051487;28;20218;-56
2023/03/30 06:39:48;;;;;;;10.67;3.73;;;;;;;12.74;100.00;96228.50;5050334;28;20204;-56
2023/03/30 06:42:16;;;;;;;8.67;3.93;;;;;;;12.70;100.00;96236.97;5050996;28;20245;-56
2023/03/30 06:44:42;;;;;;;10.47;3.10;;;;;;;12.70;100.00;96229.84;5050970;28;20272;-57
2023/03/30 06:47:09;;;;;;;9.60;4.10;;;;;;;12.65;100.00;96240.09;5051222;28;20310;-58
2023/03/30 06:49:35;;;;;;;11.37;3.40;;;;;;;12.64;100.00;96243.78;5050170;28;20231;-57
2023/03/30 06:52:01;;;;;;;7.37;3.30;;;;;;;12.66;100.00;96268.31;5050668;28;20211;-56
2023/03/30 06:54:28;;;;;;;6.57;3.57;;;;;;;12.72;100.00;96325.16;5051013;28;20218;-58
2023/03/30 06:56:54;;;;;;;13.03;3.60;;;;;;;12.73;100.00;96338.28;5051124;28;20229;-56
2023/03/30 06:59:22;;;;;;;8.00;3.30;;;;;;;12.72;100.00;96326.00;5053050;28;20568;-56
2023/03/30 07:01:49;;;;;;;9.77;3.63;;;;;;;12.75;100.00;96323.00;5055415;28;20207;-56
2023/03/30 07:04:16;;;;;;;8.40;2.93;;;;;;;12.74;100.00;96308.13;5055452;28;20226;-56
2023/03/30 07:06:43;;;;;;;9.63;3.43;;;;;;;12.78;100.00;96313.91;5055716;28;20203;-56
2023/03/30 07:09:11;;;;;;;12.10;3.73;;;;;;;12.82;100.00;96323.22;5055505;28;20227;-56
2023/03/30 07:11:38;;;;;;;11.70;3.23;;;;;;;12.92;100.00;96332.69;5055362;28;20314;-56
2023/03/30 07:14:05;;;;;;;11.43;3.57;;;;;;;13.13;98.19;96318.09;5055131;28;20200;-57
2023/03/30 07:16:34;;;;;;;11.10;3.57;;;;;;;13.45;92.84;96344.63;5054809;28;20199;-56
2023/03/30 07:19:01;;;;;;;11.07;3.40;;;;;;;13.73;88.81;96329.97;5055115;28;20215;-56
2023/03/30 07:21:27;;;;;;;11.17;3.07;;;;;;;13.86;89.26;96338.22;5055249;28;20238;-55
2023/03/30 07:23:54;;;;;;;16.77;3.93;;;;;;;14.09;86.45;96332.19;5055817;28;20203;-56
2023/03/30 07:26:21;;;;;;;11.60;3.07;;;;;;;14.25;85.87;96338.25;5054398;28;20544;-56
2023/03/30 07:28:47;;;;;;;11.80;3.17;;;;;;;14.36;85.61;96337.06;5055242;28;20240;-57
2023/03/30 07:31:15;;;;;;;12.47;2.90;;;;;;;14.53;84.59;96338.63;5054878;28;20226;-56
2023/03/30 07:33:43;;;;;;;9.20;3.22;;;;;;;14.72;82.34;96346.19;5054307;28;20668;-56
2023/03/30 07:36:10;;;;;;;8.23;3.23;;;;;;;14.90;83.30;96330.78;5054764;28;20211;-57
2023/03/30 07:38:39;;;;;;;11.07;3.17;;;;;;;15.12;79.49;96325.63;5054675;28;20286;-57
2023/03/30 07:41:09;;;;;;;12.30;3.75;;;;;;;15.24;79.91;96321.50;5054163;28;20561;-56
2023/03/30 07:43:36;;;;;;;13.38;3.40;;;;;;;15.35;79.18;96315.75;5054210;28;20659;-56
2023/03/30 07:46:02;;;;;;;8.25;3.42;;;;;;;15.47;78.19;96324.97;5054758;28;20659;-57
2023/03/30 07:48:29;;;;;;;13.25;3.25;;;;;;;15.54;78.67;96333.09;5053842;28;20268;-56
2023/03/30 07:51:01;;;;;;;18.90;3.55;;;;;;;15.57;80.17;96340.72;5053573;28;20314;-57
2023/03/30 07:53:28;;;;;;;15.80;3.60;;;;;;;15.58;81.73;96337.06;5054209;28;20234;-57
2023/03/30 07:55:55;;;;;;;9.88;3.17;;;;;;;15.59;82.14;96344.84;5054187;28;20225;-56
2023/03/30 07:58:21;;;;;;;15.20;3.83;;;;;;;15.59;84.13;96360.06;5054101;28;20314;-56
2023/03/30 08:00:48;;;;;;;15.65;3.90;;;;;;;15.61;83.04;96371.34;5054024;28;20218;-56
2023/03/30 08:03:14;;;;;;;10.98;4.13;;;;;;;15.64;84.70;96366.47;5053916;28;20277;-57
2023/03/30 08:05:41;;;;;;;11.52;3.90;;;;;;;15.65;84.42;96369.97;5054036;28;20233;-57
2023/03/30 08:08:09;;;;;;;6.90;2.90;;;;;;;15.67;83.50;96373.28;5054656;28;20268;-56
2023/03/30 08:10:38;;;;;;;5.10;2.67;;;;;;;15.67;81.02;96368.78;5054522;28;20223;-57
2023/03/30 08:13:05;;;;;;;12.82;3.63;;;;;;;15.68;78.51;96362.44;5061455;28;20207;-56
2023/03/30 08:15:31;;;;;;;7.78;3.13;;;;;;;15.66;77.80;96353.78;5057302;28;20237;-56
2023/03/30 08:18:03;;;;;;;14.00;3.45;;;;;;;15.58;76.14;96345.06;5053676;28;20241;-57
2023/03/30 08:20:29;;;;;;;11.95;3.95;;;;;;;15.63;75.45;96343.50;5053966;28;20191;-56
2023/03/30 08:22:57;;;;;;;11.05;4.03;;;;;;;15.64;75.91;96357.66;5052213;28;20589;-55
2023/03/30 08:25:26;;;;;;;10.10;3.25;;;;;;;15.68;76.02;96370.44;5057273;28;20203;-57
2023/03/30 08:27:52;;;;;;;10.77;3.28;;;;;;;15.67;76.69;96379.44;5053546;28;20514;-56
2023/03/30 08:30:19;;;;;;;8.13;2.65;;;;;;;15.72;77.05;96377.09;5053709;28;20227;-56
2023/03/30 08:32:46;;;;;;;10.05;3.33;;;;;;;15.74;75.84;96396.38;5052756;28;20242;-56
2023/03/30 08:35:12;;;;;;;12.73;3.55;;;;;;;15.70;75.74;96391.56;5053229;28;20655;-56
2023/03/30 08:37:39;;;;;;;10.45;3.33;;;;;;;15.68;75.36;96386.44;5053707;28;20206;-57
2023/03/30 08:40:09;;;;;;;12.95;3.40;;;;;;;15.63;73.65;96370.16;5053748;28;20541;-56
2023/03/30 08:42:56;;;;;;;6.80;3.13;;;;;;;15.65;73.59;96364.66;5053526;28;20211;-56
2023/03/30 08:45:23;;;;;;;13.13;3.25;;;;;;;15.65;74.70;96377.97;5054007;28;20203;-56
2023/03/30 08:47:51;;;;;;;12.63;3.53;;;;;;;15.67;73.74;96375.94;5052595;28;20635;-56
2023/03/30 08:50:29;;;;;;;10.65;3.33;;;;;;;15.71;72.75;96370.09;5052929;28;20231;-56
2023/03/30 08:52:57;;;;;;;7.93;2.90;;;;;;;15.69;73.19;96377.44;5052208;28;20210;-57
2023/03/30 08:55:26;;;;;;;15.20;3.22;;;;;;;15.69;74.08;96385.44;5053060;28;20265;-56
2023/03/30 08:58:01;;;;;;;7.32;3.42;;;;;;;15.74;74.23;96391.03;5053246;28;20238;-56
2023/03/30 09:00:35;;;;;;;12.55;2.80;;;;;;;15.73;73.99;96386.72;5052991;28;20194;-57
2023/03/30 09:03:07;;;;;;;7.72;3.05;;;;;;;15.66;76.35;96384.97;5052798;28;20611;-57
2023/03/30 09:05:37;;;;;;;10.65;3.33;;;;;;;15.61;79.10;96398.84;5053267;28;20219;-56
2023/03/30 09:08:09;;;;;;;10.95;3.28;;;;;;;15.58;76.03;96409.88;5053116;28;20199;-57
2023/03/30 09:10:37;;;;;;;12.50;3.17;;;;;;;15.60;74.72;96407.84;5052928;28;20207;-56
2023/03/30 09:13:06;;;;;;;9.90;3.22;;;;;;;15.53;75.97;96425.53;5052582;28;20206;-56
2023/03/30 09:15:35;;;;;;;10.68;2.92;;;;;;;15.47;77.06;96428.06;5052560;28;20261;-57
2023/03/30 09:18:06;;;;;;;9.52;3.30;;;;;;;15.41;76.36;96427.75;5052414;28;20241;-56
2023/03/30 09:20:37;;;;;;;11.45;3.33;;;;;;;15.45;75.34;96436.22;5053133;28;20214;-56
2023/03/30 09:23:06;;;;;;;9.95;3.38;;;;;;;15.40;76.12;96458.09;5052454;28;20207;-57
2023/03/30 09:25:36;;;;;;;7.53;3.33;;;;;;;15.29;77.67;96484.31;5052769;28;20215;-57
2023/03/30 09:28:12;;;;;;;10.70;3.63;;;;;;;15.21;78.15;96485.19;5052808;28;20207;-57
2023/03/30 09:30:40;;;;;;;13.95;3.30;;;;;;;15.12;78.56;96501.41;5052676;28;20268;-58
2023/03/30 09:33:14;;;;;;;7.35;2.90;;;;;;;15.21;77.49;96501.16;5051724;28;20211;-56
2023/03/30 09:35:42;;;;;;;11.50;3.15;;;;;;;15.12;78.22;96506.72;5052619;28;20205;-57
2023/03/30 09:38:13;;;;;;;11.80;3.15;;;;;;;15.05;79.86;96506.59;5051850;28;20545;-57
2023/03/30 09:40:55;;;;;;;8.85;3.17;;;;;;;14.99;82.56;96519.75;5052328;28;20207;-57
2023/03/30 09:43:33;;;;;;;13.25;3.55;;;;;;;14.93;85.24;96519.47;5052632;28;20205;-57
2023/03/30 09:46:01;;;;;;;6.65;3.33;;;;;;;14.69;86.47;96510.72;5052290;28;20503;-57
2023/03/30 09:48:27;;;;;;;7.47;3.30;;;;;;;14.63;90.07;96541.50;5051609;28;20202;-58
2023/03/30 09:50:55;;;;;;;6.20;3.60;;;;;;;14.60;89.66;96562.31;5051627;28;20203;-57
2023/03/30 09:53:24;;;;;;;8.10;2.97;;;;;;;14.34;94.45;96581.16;5052263;28;20290;-56
2023/03/30 09:55:59;;;;;;;12.53;3.67;;;;;;;14.18;96.44;96587.28;5051631;28;20195;-57
2023/03/30 09:58:32;;;;;;;10.17;3.40;;;;;;;13.92;100.00;96591.94;5052124;28;20277;-56
2023/03/30 10:01:05;;;;;;;9.17;3.13;;;;;;;13.71;100.00;96588.91;5052019;28;20206;-57
2023/03/30 10:03:33;;;;;;;8.80;3.20;;;;;;;13.57;100.00;96576.28;5051703;28;20199;-57
2023/03/30 10:06:06;;;;;;;8.83;4.00;;;;;;;13.40;100.00;96562.09;5051170;28;20195;-57
2023/03/30 10:08:33;;;;;;;10.60;3.20;;;;;;;13.34;100.00;96563.59;5051551;28;20203;-58
2023/03/30 10:11:01;;;;;;;11.10;3.87;;;;;;;13.28;100.00;96540.34;5051592;28;20219;-58
2023/03/30 10:13:33;;;;;;;9.67;3.90;;;;;;;13.18;100.00;96544.94;5051726;28;20199;-58
2023/03/30 10:16:05;;;;;;;11.67;4.37;;;;;;;13.10;100.00;96533.47;5052396;28;20321;-57
2023/03/30 10:18:37;;;;;;;13.47;4.30;;;;;;;13.05;100.00;96528.63;5050397;28;20214;-57
2023/03/30 10:21:06;;;;;;;7.73;4.07;;;;;;;13.14;100.00;96545.44;5051932;28;20206;-56
2023/03/30 10:23:38;;;;;;;12.20;3.83;;;;;;;13.15;100.00;96549.75;5051479;28;20716;-58
2023/03/30 10:26:09;;;;;;;11.53;3.67;;;;;;;13.25;100.00;96561.09;5053171;28;20199;-57
2023/03/30 10:28:37;;;;;;;8.90;3.03;;;;;;;13.31;100.00;96571.06;5051486;28;20195;-57
2023/03/30 10:31:05;;;;;;;9.17;4.43;;;;;;;13.35;100.00;96567.09;5051636;28;20314;-57
2023/03/30 10:33:38;;;;;;;7.97;3.53;;;;;;;13.18;100.00;96568.03;5050608;28;20207;-57
2023/03/30 10:36:07;;;;;;;10.60;3.20;;;;;;;13.19;100.00;96561.72;5069192;28;20202;-57
2023/03/30 10:38:35;;;;;;;9.93;4.00;;;;;;;13.31;100.00;96574.53;5073097;28;20211;-58
2023/03/30 10:41:03;;;;;;;7.33;3.40;;;;;;;13.41;100.00;96569.91;5075719;28;20203;-57
2023/03/30 10:43:31;;;;;;;7.20;3.03;;;;;;;13.47;100.00;96571.09;5075663;28;20191;-58
2023/03/30 10:46:07;;;;;;;9.17;3.40;;;;;;;13.55;100.00;96567.63;5063158;28;20252;-57
2023/03/30 10:48:48;;;;;;;6.67;3.33;;;;;;;13.64;100.00;96559.47;5058422;28;20195;-57
2023/03/30 10:51:24;;;;;;;8.77;3.73;;;;;;;13.83;100.00;96550.38;5061166;28;20233;-56
2023/03/30 10:53:55;;;;;;;7.63;3.50;;;;;;;13.99;100.00;96562.84;5057858;28;20202;-57
2023/03/30 10:56:28;;;;;;;6.17;3.70;;;;;;;14.08;100.00;96567.16;5057406;28;20594;-56
2023/03/30 10:59:15;;;;;;;8.77;3.40;;;;;;;14.05;100.00;96565.69;5051804;28;20203;-57
2023/03/30 11:01:52;;;;;;;13.70;3.67;;;;;;;14.12;100.00;96560.53;5051177;28;20655;-56
2023/03/30 11:04:22;;;;;;;8.13;3.87;;;;;;;14.18;100.00;96560.69;5051289;28;20199;-57
2023/03/30 11:06:51;;;;;;;4.03;2.80;;;;;;;14.23;100.00;96562.84;5051258;28;20531;-57
2023/03/30 11:09:22;;;;;;;7.53;3.20;;;;;;;14.33;100.00;96574.97;5050706;28;20206;-57
2023/03/30 11:11:51;;;;;;;9.05;3.45;;;;;;;14.32;100.00;96572.47;5050997;28;20216;-58
2023/03/30 11:14:23;;;;;;;8.80;3.27;;;;;;;14.39;100.00;96570.84;5051293;28;20218;-57
2023/03/30 11:16:53;;;;;;;7.43;3.70;;;;;;;14.23;100.00;96576.16;5050896;28;20207;-57
2023/03/30 11:19:22;;;;;;;8.05;3.15;;;;;;;14.15;100.00;96576.13;5050557;28;20608;-57
2023/03/30 11:21:56;;;;;;;6.03;3.20;;;;;;;14.18;100.00;96581.13;5050794;28;20214;-57
2023/03/30 11:24:24;;;;;;;6.22;3.13;;;;;;;14.17;100.00;96571.50;5050912;28;20297;-57
2023/03/30 11:26:57;;;;;;;7.70;3.40;;;;;;;14.09;100.00;96576.81;5051354;28;20206;-56
2023/03/30 11:29:30;;;;;;;7.60;3.53;;;;;;;14.13;100.00;96572.84;5052950;28;20203;-56
2023/03/30 11:32:08;;;;;;;7.55;3.70;;;;;;;14.20;100.00;96572.00;5052591;28;20229;-57
2023/03/30 11:34:40;;;;;;;7.80;3.45;;;;;;;14.23;100.00;96569.00;5051877;28;20203;-56